createdAt,value
2023-04-27T00:01:15.104Z,3.08
2023-04-27T00:03:42.531Z,3.01
2023-04-27T00:06:09.859Z,2.94
2023-04-27T00:08:37.687Z,2.92
2023-04-27T00:11:04.389Z,2.88
2023-04-27T00:13:30.796Z,2.86
2023-04-27T00:15:57.388Z,2.84
2023-04-27T00:18:23.838Z,2.79
2023-04-27T00:20:51.036Z,2.74
2023-04-27T00:23:17.568Z,2.73
2023-04-27T00:25:47.016Z,2.70
2023-04-27T00:28:13.841Z,2.70
2023-04-27T00:30:40.903Z,2.65
2023-04-27T00:33:09.761Z,2.63
2023-04-27T00:35:36.295Z,2.62
2023-04-27T00:38:02.954Z,2.57
2023-04-27T00:40:29.465Z,2.53
2023-04-27T00:42:55.916Z,2.52
2023-04-27T00:45:22.448Z,2.51
2023-04-27T00:47:49.715Z,2.46
2023-04-27T00:50:25.674Z,2.38
2023-04-27T00:52:52.195Z,2.36
2023-04-27T00:55:19.539Z,2.33
2023-04-27T00:57:47.146Z,2.26
2023-04-27T01:00:13.987Z,2.25
2023-04-27T01:02:41.579Z,2.22
2023-04-27T01:05:09.427Z,2.16
2023-04-27T01:07:39.894Z,2.07
2023-04-27T01:10:07.589Z,2.05
2023-04-27T01:12:35.350Z,2.01
2023-04-27T01:15:05.511Z,2.01
2023-04-27T01:17:32.845Z,2.01
2023-04-27T01:20:02.419Z,2.00
2023-04-27T01:22:28.893Z,1.97
2023-04-27T01:24:55.456Z,1.94
2023-04-27T01:27:23.764Z,1.92
2023-04-27T01:29:50.672Z,1.91
2023-04-27T01:32:17.210Z,1.90
2023-04-27T01:34:46.610Z,1.78
2023-04-27T01:37:19.826Z,1.78
2023-04-27T01:39:53.363Z,1.75
2023-04-27T01:42:24.841Z,1.75
2023-04-27T01:44:51.380Z,1.73
2023-04-27T01:47:18.200Z,1.71
2023-04-27T01:49:44.768Z,1.67
2023-04-27T01:52:11.193Z,1.63
2023-04-27T01:54:38.045Z,1.60
2023-04-27T01:57:06.121Z,1.57
2023-04-27T01:59:33.386Z,1.56
2023-04-27T02:02:00.088Z,1.52
2023-04-27T02:04:26.653Z,1.48
2023-04-27T02:06:53.268Z,1.46
2023-04-27T02:09:19.696Z,1.47
2023-04-27T02:11:46.136Z,1.46
2023-04-27T02:14:12.573Z,1.44
2023-04-27T02:16:39.175Z,1.39
2023-04-27T02:19:05.718Z,1.36
2023-04-27T02:21:32.789Z,1.33
2023-04-27T02:23:59.618Z,1.31
2023-04-27T02:26:29.381Z,1.28
2023-04-27T02:28:57.116Z,1.24
2023-04-27T02:31:24.319Z,1.24
2023-04-27T02:33:51.058Z,1.21
2023-04-27T02:36:17.627Z,1.19
2023-04-27T02:38:44.137Z,1.15
2023-04-27T02:41:10.803Z,1.12
2023-04-27T02:43:37.289Z,1.08
2023-04-27T02:46:06.474Z,1.06
2023-04-27T02:48:33.341Z,1.01
2023-04-27T02:51:02.790Z,1.00
2023-04-27T02:53:29.290Z,0.99
2023-04-27T02:55:55.867Z,0.96
2023-04-27T02:58:22.675Z,0.91
2023-04-27T03:00:54.146Z,0.91
2023-04-27T03:03:20.773Z,0.88
2023-04-27T03:05:48.756Z,0.88
2023-04-27T03:08:15.788Z,0.87
2023-04-27T03:10:42.198Z,0.82
2023-04-27T03:13:09.596Z,0.79
2023-04-27T03:15:36.108Z,0.77
2023-04-27T03:18:02.670Z,0.73
2023-04-27T03:20:29.192Z,0.70
2023-04-27T03:22:55.752Z,0.70
2023-04-27T03:25:22.301Z,0.68
2023-04-27T03:27:48.890Z,0.65
2023-04-27T03:30:15.590Z,0.63
2023-04-27T03:32:42.281Z,0.60
2023-04-27T03:35:09.968Z,0.59
2023-04-27T03:37:36.501Z,0.56
2023-04-27T03:40:07.503Z,0.55
2023-04-27T03:42:34.886Z,0.52
2023-04-27T03:45:01.579Z,0.48
2023-04-27T03:47:28.067Z,0.43
2023-04-27T03:49:54.626Z,0.39
2023-04-27T03:52:21.527Z,0.39
2023-04-27T03:54:48.506Z,0.39
2023-04-27T03:57:15.026Z,0.40
2023-04-27T03:59:41.631Z,0.41
2023-04-27T04:02:09.534Z,0.39
2023-04-27T04:04:36.910Z,0.33
2023-04-27T04:07:03.430Z,0.32
2023-04-27T04:09:29.869Z,0.31
2023-04-27T04:11:56.548Z,0.29
2023-04-27T04:14:23.907Z,0.29
2023-04-27T04:16:51.526Z,0.30
2023-04-27T04:19:21.976Z,0.27
2023-04-27T04:21:48.776Z,0.26
2023-04-27T04:24:15.975Z,0.23
2023-04-27T04:26:42.888Z,0.23
2023-04-27T04:29:10.959Z,0.21
2023-04-27T04:31:38.253Z,0.21
2023-04-27T04:34:04.877Z,0.20
2023-04-27T04:36:32.074Z,0.16
2023-04-27T04:38:58.622Z,0.16
2023-04-27T04:41:26.285Z,0.14
2023-04-27T04:43:52.863Z,0.13
2023-04-27T04:46:19.976Z,0.13
2023-04-27T04:48:46.964Z,0.12
2023-04-27T04:51:15.092Z,0.12
2023-04-27T04:53:41.748Z,0.12
2023-04-27T04:56:12.899Z,0.14
2023-04-27T04:58:39.913Z,0.21
2023-04-27T05:01:06.856Z,0.25
2023-04-27T05:03:33.587Z,0.31
2023-04-27T05:06:00.521Z,0.34
2023-04-27T05:08:26.977Z,0.37
2023-04-27T05:10:54.262Z,0.39
2023-04-27T05:13:21.663Z,0.43
2023-04-27T05:15:48.367Z,0.47
2023-04-27T05:18:14.905Z,0.52
2023-04-27T05:20:41.361Z,0.56
2023-04-27T05:23:07.806Z,0.64
2023-04-27T05:25:41.308Z,0.74
2023-04-27T05:28:08.851Z,0.83
2023-04-27T05:30:35.971Z,0.90
2023-04-27T05:33:04.063Z,0.98
2023-04-27T05:35:31.262Z,1.06
2023-04-27T05:37:58.308Z,1.20
2023-04-27T05:40:25.038Z,1.33
2023-04-27T05:42:51.865Z,1.47
2023-04-27T05:45:18.428Z,1.62
2023-04-27T05:47:45.457Z,1.71
2023-04-27T05:50:11.903Z,1.80
2023-04-27T05:52:39.287Z,1.98
2023-04-27T05:55:07.901Z,2.17
2023-04-27T05:57:34.494Z,2.24
2023-04-27T06:00:01.481Z,2.27
2023-04-27T06:02:38.948Z,2.31
2023-04-27T06:05:06.070Z,2.39
2023-04-27T06:07:32.598Z,2.55
2023-04-27T06:09:59.084Z,2.69
2023-04-27T06:12:25.518Z,2.80
2023-04-27T06:14:51.959Z,3.03
2023-04-27T06:17:18.440Z,3.53
2023-04-27T06:19:47.177Z,3.59
2023-04-27T06:22:13.617Z,3.53
2023-04-27T06:24:40.311Z,3.68
2023-04-27T06:27:06.783Z,4.21
2023-04-27T06:29:33.387Z,4.86
2023-04-27T06:32:25.520Z,5.81
2023-04-27T06:34:52.055Z,6.05
2023-04-27T06:37:18.462Z,6.15
2023-04-27T06:39:45.012Z,6.65
2023-04-27T06:42:11.660Z,7.03
2023-04-27T06:44:38.793Z,6.94
2023-04-27T06:47:05.513Z,7.09
2023-04-27T06:49:32.038Z,7.21
2023-04-27T06:51:58.456Z,7.41
2023-04-27T06:54:25.014Z,7.54
2023-04-27T06:56:51.725Z,7.47
2023-04-27T07:01:53.930Z,7.61
2023-04-27T07:04:20.672Z,7.87
2023-04-27T07:06:47.276Z,8.42
2023-04-27T07:09:26.479Z,8.72
2023-04-27T07:11:54.253Z,8.44
2023-04-27T07:14:21.047Z,8.30
2023-04-27T07:16:47.784Z,9.10
2023-04-27T07:19:14.587Z,10.05
2023-04-27T07:21:41.317Z,10.82
2023-04-27T07:24:07.999Z,11.08
2023-04-27T07:26:41.465Z,11.08
2023-04-27T07:29:22.861Z,11.08
2023-04-27T07:31:55.748Z,11.45
2023-04-27T07:34:25.423Z,11.68
2023-04-27T07:36:54.904Z,11.91
2023-04-27T07:39:23.799Z,11.90
2023-04-27T07:41:50.741Z,12.19
2023-04-27T07:44:23.043Z,12.50
2023-04-27T07:46:49.652Z,12.59
2023-04-27T07:49:16.445Z,12.25
2023-04-27T07:51:45.778Z,12.25
2023-04-27T07:54:14.024Z,12.40
2023-04-27T07:56:42.858Z,12.49
2023-04-27T07:59:09.424Z,12.59
2023-04-27T08:01:36.015Z,12.91
2023-04-27T08:04:02.652Z,13.09
2023-04-27T08:06:29.925Z,13.34
2023-04-27T08:09:00.715Z,13.44
2023-04-27T08:11:27.387Z,13.24
2023-04-27T08:13:53.849Z,13.09
2023-04-27T08:16:22.743Z,13.04
2023-04-27T08:18:49.676Z,13.12
2023-04-27T08:21:16.360Z,13.33
2023-04-27T08:23:43.355Z,13.62
2023-04-27T08:26:16.153Z,13.50
2023-04-27T08:28:42.669Z,13.74
2023-04-27T08:31:09.263Z,13.71
2023-04-27T08:33:35.738Z,13.72
2023-04-27T08:36:02.185Z,13.77
2023-04-27T08:38:28.703Z,13.83
2023-04-27T08:40:55.218Z,13.95
2023-04-27T08:43:21.757Z,14.09
2023-04-27T08:45:53.285Z,13.81
2023-04-27T08:48:20.688Z,13.85
2023-04-27T08:50:50.570Z,14.04
2023-04-27T08:53:22.158Z,14.27
2023-04-27T08:55:51.098Z,14.09
2023-04-27T08:58:17.686Z,14.27
2023-04-27T09:00:47.919Z,14.56
2023-04-27T09:03:27.231Z,14.68
2023-04-27T09:06:05.201Z,14.82
2023-04-27T09:08:45.945Z,14.95
2023-04-27T09:11:28.022Z,15.40
2023-04-27T09:13:54.580Z,15.46
2023-04-27T09:16:25.480Z,15.53
2023-04-27T09:18:52.293Z,15.68
2023-04-27T09:21:29.392Z,15.77
2023-04-27T09:23:56.730Z,15.92
2023-04-27T09:26:25.915Z,15.94
2023-04-27T09:28:58.652Z,16.03
2023-04-27T09:31:37.314Z,16.37
2023-04-27T09:34:04.002Z,16.14
2023-04-27T09:36:32.550Z,15.97
2023-04-27T09:39:05.705Z,16.20
2023-04-27T09:41:33.388Z,16.45
2023-04-27T09:44:00.741Z,16.55
2023-04-27T09:46:29.103Z,16.33
2023-04-27T09:48:56.498Z,16.44
2023-04-27T09:51:23.033Z,16.65
2023-04-27T09:53:52.837Z,16.51
2023-04-27T09:56:45.285Z,16.21
2023-04-27T09:59:37.367Z,16.81
2023-04-27T10:02:16.984Z,17.10
2023-04-27T10:05:11.779Z,16.61
2023-04-27T10:07:41.229Z,16.44
2023-04-27T10:10:17.176Z,16.61
2023-04-27T10:12:43.735Z,17.04
2023-04-27T10:15:17.363Z,17.23
2023-04-27T10:17:51.809Z,17.19
2023-04-27T10:20:29.337Z,17.32
2023-04-27T10:22:55.886Z,17.28
2023-04-27T10:25:26.792Z,17.49
2023-04-27T10:27:56.424Z,17.60
2023-04-27T10:30:24.045Z,17.71
2023-04-27T10:32:54.417Z,17.75
2023-04-27T10:35:22.192Z,17.48
2023-04-27T10:37:49.255Z,17.52
2023-04-27T10:40:19.199Z,17.66
2023-04-27T10:42:48.184Z,17.88
2023-04-27T10:45:15.108Z,17.81
2023-04-27T10:47:45.638Z,17.78
2023-04-27T10:50:14.195Z,17.91
2023-04-27T10:52:44.440Z,17.22
2023-04-27T10:55:19.179Z,17.56
2023-04-27T10:57:53.501Z,17.48
2023-04-27T11:00:26.948Z,17.59
2023-04-27T11:02:54.898Z,17.77
2023-04-27T11:05:29.761Z,18.01
2023-04-27T11:08:10.730Z,18.33
2023-04-27T11:10:50.091Z,18.35
2023-04-27T11:13:19.144Z,18.29
2023-04-27T11:15:54.708Z,18.63
2023-04-27T11:18:24.512Z,18.58
2023-04-27T11:20:53.942Z,18.44
2023-04-27T11:23:28.822Z,18.25
2023-04-27T11:25:58.494Z,18.39
2023-04-27T11:28:25.070Z,18.45
2023-04-27T11:31:02.354Z,18.22
2023-04-27T11:33:29.422Z,17.71
2023-04-27T11:35:56.715Z,17.86
2023-04-27T11:38:23.573Z,17.77
2023-04-27T11:41:01.386Z,17.95
2023-04-27T11:43:28.221Z,17.84
2023-04-27T11:45:56.272Z,17.81
2023-04-27T11:48:29.695Z,17.25
2023-04-27T11:50:59.224Z,17.33
2023-04-27T11:53:31.428Z,17.42
2023-04-27T11:56:01.167Z,17.55
2023-04-27T11:58:33.309Z,17.70
2023-04-27T12:00:59.853Z,18.12
2023-04-27T12:03:28.313Z,17.88
2023-04-27T12:05:55.050Z,18.00
2023-04-27T12:08:21.554Z,17.79
2023-04-27T12:10:48.059Z,17.66
2023-04-27T12:13:14.888Z,17.52
2023-04-27T12:15:42.469Z,17.51
2023-04-27T12:18:09.978Z,17.83
2023-04-27T12:20:36.698Z,18.06
2023-04-27T12:23:03.322Z,17.94
2023-04-27T12:25:30.330Z,17.58
2023-04-27T12:27:57.274Z,17.63
2023-04-27T12:30:24.016Z,17.52
2023-04-27T12:32:51.244Z,17.42
2023-04-27T12:35:18.185Z,17.55
2023-04-27T12:37:44.718Z,17.61
2023-04-27T12:40:11.445Z,17.70
2023-04-27T12:42:37.958Z,17.59
2023-04-27T12:45:05.016Z,17.34
2023-04-27T12:47:54.060Z,17.52
2023-04-27T12:50:22.354Z,17.50
2023-04-27T12:52:51.246Z,17.43
2023-04-27T12:55:31.318Z,17.51
2023-04-27T12:58:00.428Z,17.40
2023-04-27T13:00:27.525Z,17.74
2023-04-27T13:02:54.208Z,17.74
2023-04-27T13:05:22.090Z,17.58
2023-04-27T13:07:49.075Z,17.50
2023-04-27T13:10:16.185Z,17.49
2023-04-27T13:12:42.751Z,17.36
2023-04-27T13:15:10.106Z,17.10
2023-04-27T13:17:40.193Z,17.06
2023-04-27T13:20:10.500Z,16.96
2023-04-27T13:22:37.740Z,17.13
2023-04-27T13:25:13.263Z,17.11
2023-04-27T13:27:39.874Z,17.31
2023-04-27T13:30:08.289Z,17.43
2023-04-27T13:32:34.887Z,17.39
2023-04-27T13:35:01.313Z,17.30
2023-04-27T13:37:27.751Z,17.06
2023-04-27T13:39:54.159Z,16.97
2023-04-27T13:42:20.741Z,16.83
2023-04-27T13:44:47.251Z,17.02
2023-04-27T13:47:15.148Z,17.04
2023-04-27T13:49:41.681Z,16.98
2023-04-27T13:52:08.173Z,16.79
2023-04-27T13:54:34.682Z,16.85
2023-04-27T13:57:03.335Z,16.98
2023-04-27T13:59:30.403Z,16.92
2023-04-27T14:01:56.923Z,16.74
2023-04-27T14:04:23.441Z,16.54
2023-04-27T14:06:50.984Z,16.70
2023-04-27T14:09:18.194Z,16.78
2023-04-27T14:11:55.787Z,16.83
2023-04-27T14:14:23.639Z,16.74
2023-04-27T14:16:51.591Z,16.85
2023-04-27T14:19:20.156Z,17.02
2023-04-27T14:21:47.667Z,17.02
2023-04-27T14:24:14.293Z,16.87
2023-04-27T14:26:43.908Z,16.86
2023-04-27T14:29:11.590Z,16.81
2023-04-27T14:31:39.324Z,16.90
2023-04-27T14:34:06.419Z,17.01
2023-04-27T14:36:33.751Z,17.21
2023-04-27T14:39:01.130Z,17.26
2023-04-27T14:41:28.295Z,17.26
2023-04-27T14:43:54.938Z,17.08
2023-04-27T14:46:22.074Z,16.73
2023-04-27T14:48:49.241Z,16.67
2023-04-27T14:51:16.816Z,16.44
2023-04-27T14:53:44.006Z,16.33
2023-04-27T14:56:13.706Z,16.30
2023-04-27T14:58:41.101Z,16.31
2023-04-27T15:01:07.895Z,16.28
2023-04-27T15:03:35.714Z,16.23
2023-04-27T15:06:02.617Z,16.19
2023-04-27T15:08:33.486Z,16.10
2023-04-27T15:11:00.752Z,16.04
2023-04-27T15:13:27.875Z,15.95
2023-04-27T15:15:56.084Z,15.97
2023-04-27T15:18:24.606Z,15.79
2023-04-27T15:20:55.224Z,15.72
2023-04-27T15:23:25.118Z,15.73
2023-04-27T15:25:54.878Z,15.83
2023-04-27T15:28:21.875Z,15.61
2023-04-27T15:30:49.299Z,15.59
2023-04-27T15:33:16.675Z,15.57
2023-04-27T15:35:43.381Z,15.55
2023-04-27T15:38:13.925Z,15.70
2023-04-27T15:40:40.761Z,15.63
2023-04-27T15:43:15.862Z,15.40
2023-04-27T15:45:43.917Z,15.35
2023-04-27T15:48:14.956Z,15.33
2023-04-27T15:50:41.478Z,15.40
2023-04-27T15:53:08.042Z,15.23
2023-04-27T15:55:34.503Z,15.11
2023-04-27T15:58:01.136Z,15.22
2023-04-27T16:00:27.630Z,15.12
2023-04-27T16:02:54.682Z,15.09
2023-04-27T16:05:21.534Z,15.05
2023-04-27T16:07:47.987Z,14.91
2023-04-27T16:10:14.473Z,14.88
2023-04-27T16:12:41.014Z,15.07
2023-04-27T16:15:10.935Z,14.98
2023-04-27T16:17:38.256Z,14.77
2023-04-27T16:20:09.413Z,14.83
2023-04-27T16:22:37.386Z,14.73
2023-04-27T16:25:09.984Z,14.69
2023-04-27T16:27:37.835Z,14.60
2023-04-27T16:30:05.497Z,14.49
2023-04-27T16:32:35.006Z,14.38
2023-04-27T16:35:01.954Z,14.30
2023-04-27T16:37:28.468Z,14.39
2023-04-27T16:39:55.088Z,14.33
2023-04-27T16:42:21.718Z,14.28
2023-04-27T16:44:48.357Z,14.21
2023-04-27T16:47:14.978Z,14.20
2023-04-27T16:49:44.722Z,14.22
2023-04-27T16:52:11.903Z,14.28
2023-04-27T16:54:39.728Z,14.25
2023-04-27T16:57:07.889Z,14.10
2023-04-27T16:59:34.630Z,14.14
2023-04-27T17:02:09.509Z,14.07
2023-04-27T17:04:43.674Z,14.05
2023-04-27T17:07:10.512Z,13.97
2023-04-27T17:09:37.636Z,13.96
2023-04-27T17:12:10.756Z,14.00
2023-04-27T17:14:38.333Z,13.85
2023-04-27T17:17:06.279Z,13.78
2023-04-27T17:19:32.800Z,13.82
2023-04-27T17:21:59.934Z,13.77
2023-04-27T17:24:29.954Z,13.66
2023-04-27T17:26:56.452Z,13.64
2023-04-27T17:29:22.979Z,13.55
2023-04-27T17:31:50.716Z,13.51
2023-04-27T17:34:17.331Z,13.50
2023-04-27T17:36:43.892Z,13.50
2023-04-27T17:39:12.706Z,13.49
2023-04-27T17:41:39.591Z,13.51
2023-04-27T17:44:06.261Z,13.41
2023-04-27T17:46:33.550Z,13.38
2023-04-27T17:49:00.125Z,13.28
2023-04-27T17:51:26.917Z,13.18
2023-04-27T17:53:54.762Z,13.06
2023-04-27T17:56:21.297Z,13.07
2023-04-27T17:58:47.835Z,13.07
2023-04-27T18:01:14.341Z,13.01
2023-04-27T18:03:41.915Z,12.99
2023-04-27T18:06:09.142Z,12.92
2023-04-27T18:08:35.722Z,12.96
2023-04-27T18:11:02.300Z,12.85
2023-04-27T18:13:28.803Z,12.87
2023-04-27T18:15:55.378Z,12.79
2023-04-27T18:18:23.958Z,12.77
2023-04-27T18:20:51.674Z,12.71
2023-04-27T18:23:18.153Z,12.69
2023-04-27T18:25:44.681Z,12.69
2023-04-27T18:28:11.510Z,12.59
2023-04-27T18:30:38.748Z,12.52
2023-04-27T18:33:05.381Z,12.50
2023-04-27T18:35:32.045Z,12.48
2023-04-27T18:37:58.666Z,12.45
2023-04-27T18:40:26.074Z,12.42
2023-04-27T18:42:53.141Z,12.37
2023-04-27T18:45:19.866Z,12.32
2023-04-27T18:47:46.363Z,12.38
2023-04-27T18:50:15.776Z,12.39
2023-04-27T18:52:42.393Z,12.31
2023-04-27T18:55:09.389Z,12.32
2023-04-27T18:57:36.166Z,12.32
2023-04-27T19:00:05.809Z,12.25
2023-04-27T19:02:32.976Z,12.24
2023-04-27T19:05:11.358Z,12.21
2023-04-27T19:07:39.267Z,12.10
2023-04-27T19:10:06.684Z,12.04
2023-04-27T19:12:33.175Z,12.09
2023-04-27T19:14:59.634Z,12.00
2023-04-27T19:17:26.205Z,11.92
2023-04-27T19:19:52.826Z,11.93
2023-04-27T19:22:19.297Z,11.96
2023-04-27T19:24:45.806Z,11.94
2023-04-27T19:27:12.548Z,11.93
2023-04-27T19:29:51.023Z,11.86
2023-04-27T19:32:17.623Z,11.86
2023-04-27T19:34:44.149Z,11.86
2023-04-27T19:37:10.607Z,11.85
2023-04-27T19:39:37.317Z,11.76
2023-04-27T19:42:03.775Z,11.67
2023-04-27T19:44:31.143Z,11.63
2023-04-27T19:46:57.628Z,11.63
2023-04-27T19:49:24.340Z,11.63
2023-04-27T19:51:50.828Z,11.62
2023-04-27T19:54:19.565Z,11.56
2023-04-27T19:56:46.229Z,11.58
2023-04-27T19:59:12.997Z,11.56
2023-04-27T20:01:39.429Z,11.54
2023-04-27T20:04:06.373Z,11.47
2023-04-27T20:06:34.401Z,11.45
2023-04-27T20:09:00.927Z,11.41
2023-04-27T20:11:27.464Z,11.39
2023-04-27T20:13:53.920Z,11.38
2023-04-27T20:16:21.562Z,11.32
2023-04-27T20:18:51.772Z,11.29
2023-04-27T20:21:18.400Z,11.31
2023-04-27T20:23:47.547Z,11.24
2023-04-27T20:26:14.238Z,11.18
2023-04-27T20:28:40.833Z,11.14
2023-04-27T20:31:07.466Z,11.10
2023-04-27T20:33:34.923Z,11.11
2023-04-27T20:36:14.225Z,11.06
2023-04-27T20:38:43.529Z,11.02
2023-04-27T20:41:11.717Z,10.99
2023-04-27T20:43:40.139Z,10.94
2023-04-27T20:46:16.415Z,10.96
2023-04-27T20:48:43.002Z,10.91
2023-04-27T20:51:09.556Z,10.93
2023-04-27T20:53:37.362Z,10.89
2023-04-27T20:56:04.783Z,10.82
2023-04-27T20:58:31.348Z,10.80
2023-04-27T21:01:00.253Z,10.70
2023-04-27T21:03:27.005Z,10.72
2023-04-27T21:05:53.722Z,10.72
2023-04-27T21:08:20.190Z,10.66
2023-04-27T21:10:46.796Z,10.63
2023-04-27T21:13:31.821Z,10.57
2023-04-27T21:15:58.794Z,10.59
2023-04-27T21:18:30.262Z,10.58
2023-04-27T21:20:57.570Z,10.56
2023-04-27T21:23:24.113Z,10.54
2023-04-27T21:25:50.679Z,10.50
2023-04-27T21:28:17.126Z,10.42
2023-04-27T21:30:43.717Z,10.39
2023-04-27T21:33:10.479Z,10.33
2023-04-27T21:35:37.009Z,10.30
2023-04-27T21:38:06.445Z,10.35
2023-04-27T21:40:32.992Z,10.29
2023-04-27T21:42:59.783Z,10.26
2023-04-27T21:45:26.816Z,10.25
2023-04-27T21:47:53.422Z,10.27
2023-04-27T21:50:20.124Z,10.27
2023-04-27T21:52:46.821Z,10.24
2023-04-27T21:55:15.234Z,10.21
2023-04-27T21:57:41.730Z,10.17
2023-04-27T22:00:13.268Z,10.19
2023-04-27T22:02:45.722Z,10.15
2023-04-27T22:05:14.169Z,10.13
2023-04-27T22:07:41.422Z,10.15
2023-04-27T22:10:08.257Z,10.15
2023-04-27T22:12:34.853Z,10.08
2023-04-27T22:15:01.392Z,10.09
2023-04-27T22:17:28.056Z,10.06
2023-04-27T22:19:54.774Z,10.07
2023-04-27T22:22:21.214Z,10.05
2023-04-27T22:24:47.675Z,10.05
2023-04-27T22:27:14.110Z,10.02
2023-04-27T22:29:40.673Z,10.01
2023-04-27T22:32:07.411Z,10.00
2023-04-27T22:34:34.162Z,10.00
2023-04-27T22:37:01.986Z,9.97
2023-04-27T22:39:30.179Z,9.89
2023-04-27T22:41:56.722Z,9.90
2023-04-27T22:44:23.206Z,9.87
2023-04-27T22:46:49.688Z,9.84
2023-04-27T22:49:17.292Z,9.81
2023-04-27T22:51:43.747Z,9.80
2023-04-27T22:54:10.463Z,9.77
2023-04-27T22:56:36.897Z,9.78
2023-04-27T22:59:03.432Z,9.71
2023-04-27T23:01:29.929Z,9.67
2023-04-27T23:03:56.519Z,9.67
2023-04-27T23:06:23.029Z,9.62
2023-04-27T23:08:49.660Z,9.63
2023-04-27T23:11:18.913Z,9.60
2023-04-27T23:13:48.095Z,9.59
2023-04-27T23:16:14.913Z,9.59
2023-04-27T23:18:41.745Z,9.60
2023-04-27T23:21:10.205Z,9.56
2023-04-27T23:23:36.714Z,9.58
2023-04-27T23:26:03.328Z,9.56
2023-04-27T23:28:29.727Z,9.51
2023-04-27T23:30:56.141Z,9.51
2023-04-27T23:33:22.676Z,9.46
2023-04-27T23:35:49.316Z,9.42
2023-04-27T23:38:16.140Z,9.40
2023-04-27T23:40:42.651Z,9.40
2023-04-27T23:43:09.142Z,9.36
2023-04-27T23:45:35.594Z,9.30
2023-04-27T23:48:02.159Z,9.29
2023-04-27T23:50:28.639Z,9.28
2023-04-27T23:52:55.206Z,9.31
2023-04-27T23:55:21.831Z,9.25
2023-04-27T23:57:51.656Z,9.23
